Relevés horaires Cimetta (Suisse)


Relevés horaires à Cimetta - Lundi 10 Sept. 2018
Heure UTC1 Température [°C] Vent [km/h] Hum. [%] Pres.4 [hPa] Visi. [Km] Nébu. [octa] Préc.5 [mm] Cond.
2m. Res. Ros. Dir.2 Vit. Moy. Raf.3
23:00 15.4 15.4 8.0 ONO 7.4 -- -- 61 850 -- -- -- --
22:00 14.8 14.7 10.9 ONO 7.4 -- -- 77 850 -- -- -- --
21:00 15.1 15.1 11.8 NNE 1.9 -- 7.4 81 850(1.1/3h) -- -- -- --
20:00 14.9 14.9 12.3 NNE 1.9 -- -- 84 850 -- -- -- --
19:00 15.3 15.3 10.7 OSO 3.7 -- -- 74 850 -- -- -- --
18:00 15.1 15.1 12.9 SSE 1.9 -- 18.5 87 850(0.3/3h) -- -- 0/12h
--
17:00 15.8 15.8 12.2 ENE 0.0 -- -- 79 850 -- -- -- --
16:00 15.7 15.7 11.9 NE 3.7 -- -- 78 850 -- -- -- --
15:00 16.9 16.9 11.2 SO 7.4 -- 18.5 69 850(0.0/3h) -- -- -- --
14:00 17.5 17.5 12.9 SO 7.4 -- -- 74 850 -- -- -- --
13:00 17.0 17.0 11.6 S 5.6 -- -- 70 850 -- -- -- --
12:00 16.9 16.9 12.6 SSO 7.4 -- 18.5 76 850(0.0/3h) -- -- 0/6h
--
11:00 16.0 16.0 12.4 S 7.4 -- -- 79 850 -- -- -- --
10:00 16.4 16.4 12.1 SSO 5.6 -- -- 76 850 -- -- -- --
09:00 14.4 14.4 12.6 S 3.7 -- 9.3 89 850(0.3/3h) -- -- -- --
08:00 13.6 13.6 12.3 S 1.9 -- -- 92 850 -- -- -- --
07:00 12.6 12.6 11.4 ONO 1.9 -- -- 92 850 -- -- -- --
06:00 12.4 12.4 10.9 SSO 1.9 -- 7.4 91 850(0.7/3h) -- -- 0/12h
0/24h
--
05:00 12.2 12.2 11.3 NE 3.7 -- -- 94 850 -- -- -- --
04:00 12.3 12.3 11.4 ENE 1.9 -- -- 94 850 -- -- -- --
03:00 12.6 12.6 11.4 SE 5.6 -- 7.4 92 850(-0.2/3h) -- -- -- --
02:00 12.8 12.8 11.0 S 5.6 -- -- 89 850 -- -- -- --
01:00 12.8 12.8 11.5 SSE 1.9 -- -- 92 850 -- -- -- --
00:00 12.6 12.6 11.6 E 3.7 -- 9.3 94 850(-0.4/3h) -- -- 0/6h
--

1 Coordinated Universal Time. Actuellement il est 21:00 locale et 19:00 UTC.

2 Le vent souffle depuis la direction indiquée vers la direction oposée.

3 Les rafales max. sont disponible 40 min après l'heure du relevé.

4 Pour les stations d'altitude (plus de 600m) le géopotentiel du niveau le plus proche de la pression obligatoire est indiqué.

5 Les stations disposant d'un diffuseur peuvent indiquer "trace". Cela signifie que des précipitations ont touchés le sol mais que la quantité est inférieure à 0.1 mm.

Récapitulatif de la journée
Température [°C] Vent [km/h] Ensoleillement4 [h] Precipitations totale5 [mm] Pression [Hpa]
Min1 Max.2 Moy.3 Max. Min Max.
12.1 19.6 0 18.5 9 h 6 min 0 850.0 850.0

1 Température minimale relevée entre 18:00 UTC la veille et 18:00 UTC le jour donné.

2 Température maximale relevée entre 06:00 UTC le jour donné et 06:00 UTC le lendemain.

3 Vent moyen de la journée basé sur les relevés horaires.

4 Ensoleillement en heures relevé entre 06:00 UTC la veille et 06:00 UTC le jour donné.

5 Précipitations totales tombées entre 06:00 UTC la jour donné et 06:00 UTC le lendemain.

Graphiques horaires